Time;durP1;ratioP1;P1;durP2;ratioP2;P2;SDS_P1;SDS_P2;PMS_P1;PMS_P2;Temp;Humidity;BMP_temperature;BMP_pressure;BME280_temperature;BME280_humidity;BME280_pressure;Samples;Min_cycle;Max_cycle;Signal;HPM_P1;HPM_P2
2021/07/20 00:00:12;;;;;;;0.22;0.20;;;11.70;99.90;;;;;;5058778;28;20433;-94
2021/07/20 00:03:10;;;;;;;1.27;0.40;;;11.80;99.40;;;;;;5057625;28;20391;-90
2021/07/20 00:05:44;;;;;;;0.40;0.20;;;11.70;98.20;;;;;;5056299;28;21109;-91
2021/07/20 00:08:12;;;;;;;0.77;0.40;;;11.60;99.10;;;;;;5060649;28;20430;-93
2021/07/20 00:10:47;;;;;;;0.77;0.40;;;11.50;99.30;;;;;;5054084;28;20415;-90
2021/07/20 00:13:14;;;;;;;1.10;0.40;;;11.40;98.50;;;;;;5053910;28;20387;-92
2021/07/20 00:15:42;;;;;;;1.20;0.40;;;11.40;99.90;;;;;;5058239;28;20414;-90
2021/07/20 00:18:12;;;;;;;0.63;0.40;;;11.40;99.90;;;;;;5056100;28;20891;-88
2021/07/20 00:20:40;;;;;;;1.13;0.47;;;11.50;99.70;;;;;;5060734;28;20427;-88
2021/07/20 00:23:08;;;;;;;0.57;0.40;;;11.60;99.00;;;;;;5066013;28;20393;-89
2021/07/20 00:25:36;;;;;;;1.10;0.45;;;11.70;99.80;;;;;;5060385;28;21001;-90
2021/07/20 00:28:03;;;;;;;2.38;0.65;;;11.80;99.40;;;;;;5070018;28;20386;-91
2021/07/20 00:30:31;;;;;;;1.00;0.40;;;11.80;99.90;;;;;;5064165;28;20419;-89
2021/07/20 00:32:58;;;;;;;1.50;0.60;;;12.10;98.90;;;;;;5058386;28;20390;-92
2021/07/20 00:35:25;;;;;;;1.70;0.60;;;12.20;98.80;;;;;;5053766;28;20395;-91
2021/07/20 00:37:52;;;;;;;0.80;0.40;;;12.30;98.50;;;;;;5059271;28;20389;-91
2021/07/20 00:40:20;;;;;;;1.10;0.50;;;12.30;99.00;;;;;;5068819;28;20405;-90
2021/07/20 00:42:47;;;;;;;2.90;0.63;;;12.30;97.90;;;;;;5052141;28;20391;-91
2021/07/20 00:45:17;;;;;;;2.70;0.40;;;12.30;98.50;;;;;;5059236;28;20450;-89
2021/07/20 00:47:45;;;;;;;4.80;0.40;;;12.30;97.90;;;;;;5065720;28;20411;-90
2021/07/20 00:50:15;;;;;;;3.75;0.50;;;12.30;97.20;;;;;;5051605;28;20419;-88
2021/07/20 00:52:42;;;;;;;1.58;0.50;;;12.30;97.10;;;;;;5065124;28;20390;-90
2021/07/20 00:55:11;;;;;;;1.48;0.52;;;12.30;97.30;;;;;;5052478;28;20388;-93
2021/07/20 00:57:40;;;;;;;0.85;0.50;;;12.40;97.10;;;;;;5063679;28;20902;-95
2021/07/20 01:00:11;;;;;;;4.50;0.50;;;12.40;97.80;;;;;;5067482;28;20400;-95
2021/07/20 01:02:38;;;;;;;23.17;1.38;;;12.60;97.80;;;;;;5062137;28;20389;-93
2021/07/20 01:05:14;;;;;;;2.15;0.20;;;12.80;96.90;;;;;;5059938;28;20820;-86
2021/07/20 01:07:44;;;;;;;2.83;0.30;;;12.90;95.90;;;;;;5047282;28;20404;-87
2021/07/20 01:10:12;;;;;;;2.28;0.30;;;13.00;95.10;;;;;;5053670;28;20990;-86
2021/07/20 01:12:43;;;;;;;2.92;0.20;;;13.20;93.50;;;;;;5054838;28;20493;-89
2021/07/20 01:15:11;;;;;;;0.30;0.20;;;13.30;93.30;;;;;;5060085;28;20485;-91
2021/07/20 01:17:40;;;;;;;1.20;0.30;;;13.40;92.90;;;;;;5060549;28;20407;-94
2021/07/20 01:20:10;;;;;;;1.00;0.10;;;13.40;93.10;;;;;;5058243;28;20750;-93
2021/07/20 01:22:40;;;;;;;0.40;0.22;;;13.50;92.60;;;;;;5061718;28;20429;-87
2021/07/20 01:25:12;;;;;;;3.00;0.30;;;13.70;92.90;;;;;;5061465;28;20392;-87
2021/07/20 01:27:43;;;;;;;1.08;0.32;;;13.80;92.90;;;;;;5059507;28;20412;-92
2021/07/20 01:30:11;;;;;;;0.97;0.10;;;13.90;92.80;;;;;;5055970;28;20954;-89
2021/07/20 01:32:40;;;;;;;1.90;0.20;;;13.90;93.70;;;;;;5076384;28;20386;-88
2021/07/20 01:35:08;;;;;;;1.30;0.10;;;13.90;92.50;;;;;;5069621;28;20877;-89
2021/07/20 01:37:36;;;;;;;0.50;0.17;;;13.90;92.50;;;;;;5070821;28;20377;-86
2021/07/20 01:40:05;;;;;;;0.13;0.10;;;13.70;91.90;;;;;;5061968;28;20921;-88
2021/07/20 01:42:32;;;;;;;1.60;0.13;;;13.70;91.90;;;;;;5056190;28;20394;-87
2021/07/20 01:45:00;;;;;;;3.30;0.20;;;13.60;92.70;;;;;;5076200;28;20405;-92
2021/07/20 01:47:28;;;;;;;1.00;0.20;;;13.50;92.20;;;;;;5080119;28;20405;-89
2021/07/20 01:49:59;;;;;;;0.38;0.17;;;13.40;92.30;;;;;;5054501;28;20401;-91
2021/07/20 01:52:27;;;;;;;6.80;0.30;;;13.40;92.50;;;;;;5045556;28;20468;-89
2021/07/20 01:54:55;;;;;;;1.10;0.50;;;13.40;93.20;;;;;;5033598;28;20912;-86
2021/07/20 01:57:22;;;;;;;0.20;0.20;;;13.40;93.00;;;;;;5043058;28;20793;-88
2021/07/20 01:59:49;;;;;;;0.20;0.10;;;13.40;93.60;;;;;;5036825;28;20498;-92
2021/07/20 02:02:38;;;;;;;13.10;0.50;;;13.40;92.80;;;;;;5046509;28;20386;-91
2021/07/20 02:10:42;;;;;;;2.13;0.30;;;13.30;93.80;;;;;;5042391;28;20426;-90
2021/07/20 02:13:13;;;;;;;0.70;0.30;;;13.30;93.80;;;;;;5040354;28;20444;-91
2021/07/20 02:15:41;;;;;;;0.30;0.10;;;13.30;93.00;;;;;;5049549;28;20390;-87
2021/07/20 02:18:09;;;;;;;1.48;0.20;;;13.30;93.50;;;;;;5046865;28;20424;-91
2021/07/20 02:20:40;;;;;;;0.47;0.10;;;13.30;93.90;;;;;;5043573;28;20779;-91
2021/07/20 02:23:08;;;;;;;0.60;0.20;;;13.30;94.20;;;;;;5054840;28;20479;-92
2021/07/20 02:25:36;;;;;;;0.40;0.20;;;13.30;95.30;;;;;;5043437;28;20458;-90
2021/07/20 02:28:06;;;;;;;5.00;0.40;;;13.30;93.90;;;;;;5043636;28;20397;-92
2021/07/20 02:30:34;;;;;;;0.50;0.20;;;13.30;94.40;;;;;;5046377;28;20518;-90
2021/07/20 02:33:02;;;;;;;0.80;0.10;;;13.30;94.60;;;;;;5029270;28;20400;-89
2021/07/20 02:35:30;;;;;;;0.90;0.30;;;13.30;94.20;;;;;;5051241;28;20387;-92
2021/07/20 02:37:59;;;;;;;0.85;0.20;;;13.30;94.10;;;;;;5038353;28;20481;-86
2021/07/20 02:40:27;;;;;;;1.08;0.13;;;13.30;95.10;;;;;;5035733;28;20403;-92
2021/07/20 02:42:57;;;;;;;1.30;0.30;;;13.40;95.10;;;;;;5039120;28;20401;-91
2021/07/20 02:45:27;;;;;;;0.85;0.38;;;13.40;94.90;;;;;;5041389;28;20398;-88
2021/07/20 02:47:54;;;;;;;1.85;0.43;;;13.50;95.00;;;;;;5048550;28;20432;-89
2021/07/20 02:50:23;;;;;;;0.90;0.50;;;13.50;95.00;;;;;;5057395;28;20408;-91
2021/07/20 02:52:52;;;;;;;1.50;0.50;;;13.40;95.60;;;;;;5060178;28;20390;-87
2021/07/20 02:55:20;;;;;;;1.13;0.50;;;13.40;95.10;;;;;;5062609;28;20472;-88
2021/07/20 02:57:49;;;;;;;1.47;0.73;;;13.30;95.00;;;;;;5058316;28;20408;-92
2021/07/20 03:00:17;;;;;;;2.25;0.65;;;13.30;95.60;;;;;;5062284;28;20848;-90
2021/07/20 03:02:46;;;;;;;2.50;0.50;;;13.30;96.10;;;;;;5061829;28;21540;-89
2021/07/20 03:05:15;;;;;;;1.50;0.60;;;13.20;95.60;;;;;;5061002;28;20398;-89
2021/07/20 03:07:54;;;;;;;1.27;0.60;;;13.20;96.40;;;;;;5071932;28;20387;-89
2021/07/20 03:10:24;;;;;;;1.75;0.50;;;13.20;96.20;;;;;;5064112;28;20494;-88
2021/07/20 03:12:54;;;;;;;0.82;0.40;;;13.10;95.60;;;;;;5069919;28;20542;-90
2021/07/20 03:15:23;;;;;;;1.13;0.43;;;13.00;96.30;;;;;;5066545;28;20412;-90
2021/07/20 03:17:51;;;;;;;1.20;0.47;;;13.00;97.30;;;;;;5064566;28;20423;-91
2021/07/20 03:20:20;;;;;;;0.90;0.30;;;13.00;96.30;;;;;;5071638;28;20402;-88
2021/07/20 03:22:48;;;;;;;1.10;0.50;;;12.90;97.60;;;;;;5073015;28;20420;-87
2021/07/20 03:25:16;;;;;;;0.43;0.30;;;12.80;96.20;;;;;;5068220;28;20430;-90
2021/07/20 03:27:44;;;;;;;2.80;0.47;;;12.80;97.40;;;;;;5066723;28;20481;-91
2021/07/20 03:30:12;;;;;;;0.57;0.30;;;12.80;97.00;;;;;;5060420;28;20783;-88
2021/07/20 03:32:45;;;;;;;0.93;0.30;;;12.70;97.40;;;;;;5061961;28;20390;-91
2021/07/20 03:35:17;;;;;;;1.08;0.52;;;12.70;97.60;;;;;;5070776;28;20445;-89
2021/07/20 03:37:45;;;;;;;1.90;0.50;;;12.70;98.00;;;;;;5062964;28;20475;-88
2021/07/20 03:40:13;;;;;;;0.93;0.40;;;12.70;98.30;;;;;;5054809;28;20405;-89
2021/07/20 03:42:41;;;;;;;2.42;0.52;;;12.70;98.30;;;;;;5062960;28;20410;-90
2021/07/20 03:45:10;;;;;;;2.00;0.40;;;12.70;98.10;;;;;;5068324;28;20959;-90
2021/07/20 03:47:41;;;;;;;1.13;0.40;;;12.70;98.10;;;;;;5060068;28;20405;-89
2021/07/20 03:50:09;;;;;;;1.65;0.60;;;12.70;98.90;;;;;;5067033;28;20429;-91
2021/07/20 03:52:40;;;;;;;1.55;0.65;;;12.70;98.70;;;;;;5061160;28;20404;-93
2021/07/20 03:55:08;;;;;;;2.47;0.50;;;12.70;98.70;;;;;;5058788;28;20750;-88
2021/07/20 03:57:36;;;;;;;2.03;1.25;;;12.70;98.30;;;;;;5056924;28;20988;-90
2021/07/20 04:00:08;;;;;;;2.15;1.65;;;12.70;99.50;;;;;;5061479;28;20896;-90
2021/07/20 04:02:56;;;;;;;3.78;1.80;;;12.60;99.30;;;;;;5057196;28;20469;-92
2021/07/20 04:05:25;;;;;;;2.30;1.30;;;12.60;99.90;;;;;;5058655;28;22041;-93
2021/07/20 04:07:53;;;;;;;1.88;0.82;;;12.70;99.90;;;;;;5088189;28;20390;-92
2021/07/20 04:10:21;;;;;;;1.15;0.82;;;12.70;99.10;;;;;;5069655;28;20398;-90
2021/07/20 04:12:48;;;;;;;3.55;2.58;;;12.70;98.70;;;;;;5068252;28;20397;-91
2021/07/20 04:15:15;;;;;;;1.87;0.60;;;12.80;99.90;;;;;;5059762;28;20409;-88
2021/07/20 04:17:43;;;;;;;1.77;0.70;;;12.80;99.10;;;;;;5063963;28;20418;-91
2021/07/20 04:20:12;;;;;;;1.73;0.60;;;12.80;99.80;;;;;;5062155;28;20503;-92
2021/07/20 04:22:41;;;;;;;2.05;0.50;;;12.70;98.70;;;;;;5056438;28;20912;-92
2021/07/20 04:25:10;;;;;;;1.65;0.50;;;12.70;98.40;;;;;;5056879;28;20398;-89
2021/07/20 04:27:42;;;;;;;0.98;0.30;;;12.80;99.30;;;;;;5061061;28;20484;-89
2021/07/20 04:30:11;;;;;;;2.40;0.80;;;12.70;99.30;;;;;;5055003;28;20431;-90
2021/07/20 04:32:46;;;;;;;1.20;0.30;;;12.80;99.30;;;;;;5091409;27;20387;-93
2021/07/20 04:35:16;;;;;;;1.02;0.38;;;12.80;98.90;;;;;;5055137;28;20388;-93
2021/07/20 04:37:43;;;;;;;0.90;0.47;;;12.70;99.30;;;;;;5062550;28;20891;-88
2021/07/20 04:40:13;;;;;;;1.20;0.40;;;12.70;99.20;;;;;;5073322;28;20381;-92
2021/07/20 04:42:41;;;;;;;1.10;0.50;;;12.70;99.20;;;;;;5056185;28;20395;-90
2021/07/20 04:45:10;;;;;;;0.87;0.30;;;12.70;99.00;;;;;;5058437;28;20378;-88
2021/07/20 04:47:42;;;;;;;0.82;0.40;;;12.70;99.20;;;;;;5056769;28;20487;-90
2021/07/20 04:50:12;;;;;;;1.90;0.60;;;12.70;99.60;;;;;;5064701;28;20409;-88
2021/07/20 04:52:44;;;;;;;1.33;0.40;;;12.60;99.90;;;;;;5059819;28;20474;-93
2021/07/20 04:55:13;;;;;;;0.88;0.40;;;12.60;99.90;;;;;;5060143;28;20387;-93
2021/07/20 04:57:41;;;;;;;1.15;0.40;;;12.50;99.60;;;;;;5053851;28;20461;-93
2021/07/20 05:00:09;;;;;;;0.68;0.43;;;12.50;99.90;;;;;;5052044;28;20388;-90
2021/07/20 05:02:46;;;;;;;1.10;0.38;;;12.50;99.90;;;;;;5062932;28;20402;-92
2021/07/20 05:05:22;;;;;;;1.40;0.70;;;12.50;99.40;;;;;;5062564;28;20765;-87
2021/07/20 05:07:53;;;;;;;0.95;0.50;;;12.50;99.20;;;;;;5061657;28;20849;-88
2021/07/20 05:10:21;;;;;;;0.70;0.70;;;12.40;99.50;;;;;;5083106;28;20492;-94
2021/07/20 05:12:49;;;;;;;1.42;0.43;;;12.40;99.90;;;;;;5073852;28;20385;-93
2021/07/20 05:15:18;;;;;;;0.63;0.60;;;12.40;99.90;;;;;;5067058;28;20401;-90
2021/07/20 05:17:46;;;;;;;0.98;0.50;;;12.40;99.90;;;;;;5058125;28;20382;-91
2021/07/20 05:20:15;;;;;;;1.13;0.50;;;12.30;99.90;;;;;;5071976;28;20415;-87
2021/07/20 05:22:44;;;;;;;0.87;0.40;;;12.30;99.90;;;;;;5061123;28;20546;-91
2021/07/20 05:25:13;;;;;;;1.23;0.30;;;12.30;99.90;;;;;;5068911;28;20413;-92
2021/07/20 05:27:46;;;;;;;1.65;0.40;;;12.40;99.90;;;;;;5065749;28;20386;-93
2021/07/20 05:30:14;;;;;;;0.80;0.35;;;12.40;99.80;;;;;;5067757;28;20445;-93
2021/07/20 05:32:43;;;;;;;1.00;0.50;;;12.50;99.80;;;;;;5066842;28;20482;-94
2021/07/20 05:35:16;;;;;;;2.58;0.47;;;12.50;99.50;;;;;;5064310;28;20399;-93
2021/07/20 05:37:44;;;;;;;0.75;0.40;;;12.60;99.50;;;;;;5067693;28;20417;-91
2021/07/20 05:40:14;;;;;;;0.90;0.47;;;12.60;99.60;;;;;;5070801;28;20902;-94
2021/07/20 05:42:43;;;;;;;1.15;0.52;;;12.70;99.50;;;;;;5063786;28;20871;-92
2021/07/20 05:45:12;;;;;;;0.90;0.43;;;12.70;99.30;;;;;;5068609;28;20438;-94
2021/07/20 05:47:44;;;;;;;1.40;0.52;;;12.70;99.70;;;;;;5111165;28;20465;-92
2021/07/20 05:50:12;;;;;;;0.90;0.50;;;12.70;99.80;;;;;;5083152;28;20466;-92
2021/07/20 05:52:45;;;;;;;1.60;1.30;;;12.70;99.90;;;;;;5083426;28;20370;-93
2021/07/20 05:55:13;;;;;;;2.08;0.68;;;12.70;99.90;;;;;;5079216;28;20446;-90
2021/07/20 05:57:48;;;;;;;1.20;0.90;;;12.70;99.70;;;;;;5080433;28;20450;-93
2021/07/20 06:00:20;;;;;;;0.93;0.60;;;12.80;99.90;;;;;;5076390;28;20386;-94
2021/07/20 06:02:49;;;;;;;1.10;0.70;;;12.70;99.90;;;;;;5079917;28;20767;-86
2021/07/20 06:05:17;;;;;;;1.90;0.70;;;12.70;99.90;;;;;;5070793;28;20522;-89
2021/07/20 06:07:45;;;;;;;1.33;0.80;;;12.80;99.90;;;;;;5058300;28;20395;-93
2021/07/20 06:10:16;;;;;;;2.90;0.90;;;12.80;99.90;;;;;;5069816;28;20416;-93
2021/07/20 06:12:44;;;;;;;3.28;0.93;;;12.90;99.90;;;;;;5076658;28;20382;-94
2021/07/20 06:15:12;;;;;;;1.77;0.75;;;12.90;99.90;;;;;;5073382;28;20386;-89
2021/07/20 06:17:40;;;;;;;0.80;0.80;;;12.90;99.80;;;;;;5062757;28;20396;-92
2021/07/20 06:20:09;;;;;;;2.33;1.10;;;12.90;99.90;;;;;;5067112;28;20436;-90
2021/07/20 06:22:41;;;;;;;1.07;0.80;;;12.80;99.70;;;;;;5067382;28;20477;-93
2021/07/20 06:25:10;;;;;;;1.45;1.00;;;12.80;99.90;;;;;;5063104;28;20395;-95
2021/07/20 06:27:38;;;;;;;0.90;0.80;;;12.80;99.90;;;;;;5066583;28;20396;-89
2021/07/20 06:30:06;;;;;;;3.80;1.27;;;12.70;99.90;;;;;;5076821;28;20438;-91
2021/07/20 06:32:33;;;;;;;1.75;0.80;;;12.70;99.90;;;;;;5075689;28;20415;-88
2021/07/20 06:35:01;;;;;;;2.60;0.77;;;12.60;99.90;;;;;;5068177;28;20921;-88
2021/07/20 06:37:28;;;;;;;1.27;0.85;;;12.50;99.90;;;;;;5068097;28;20915;-90
2021/07/20 06:39:56;;;;;;;2.80;0.75;;;12.50;99.90;;;;;;5072677;28;20389;-91
2021/07/20 06:42:24;;;;;;;1.15;0.90;;;12.50;99.90;;;;;;5067213;28;20437;-90
2021/07/20 06:44:52;;;;;;;1.40;0.90;;;12.40;99.90;;;;;;5067530;28;20386;-90
2021/07/20 06:47:20;;;;;;;1.10;0.70;;;12.40;99.90;;;;;;5070035;28;20409;-89
2021/07/20 06:49:49;;;;;;;1.27;0.60;;;12.30;99.90;;;;;;5072301;28;20905;-91
2021/07/20 06:52:18;;;;;;;1.60;0.60;;;12.20;99.90;;;;;;5074166;28;20408;-92
2021/07/20 06:54:45;;;;;;;2.53;0.68;;;12.20;99.90;;;;;;5060309;28;20409;-94
2021/07/20 06:57:16;;;;;;;1.50;0.50;;;12.20;99.90;;;;;;5060063;28;20418;-88
2021/07/20 06:59:44;;;;;;;1.02;0.63;;;12.20;99.90;;;;;;5057439;28;20942;-87
2021/07/20 07:02:19;;;;;;;2.00;0.80;;;12.20;99.90;;;;;;5062962;28;20392;-86
2021/07/20 07:04:49;;;;;;;0.93;0.70;;;12.10;99.90;;;;;;5053778;28;20418;-92
2021/07/20 07:07:18;;;;;;;1.80;0.90;;;12.10;99.90;;;;;;5057209;28;20743;-91
2021/07/20 07:09:47;;;;;;;1.63;0.60;;;12.10;99.90;;;;;;5062765;28;20440;-91
2021/07/20 07:12:14;;;;;;;2.13;0.98;;;12.10;99.90;;;;;;5069958;28;20402;-94
2021/07/20 07:14:42;;;;;;;2.30;0.90;;;12.00;99.90;;;;;;5062110;28;20434;-91
2021/07/20 07:17:10;;;;;;;1.98;0.60;;;12.10;99.90;;;;;;5064218;28;20397;-91
2021/07/20 07:19:39;;;;;;;0.85;0.80;;;12.10;99.90;;;;;;5067821;28;20478;-90
2021/07/20 07:22:06;;;;;;;0.85;0.70;;;12.00;99.90;;;;;;5072226;28;20416;-92
2021/07/20 07:24:35;;;;;;;1.47;0.70;;;12.00;99.90;;;;;;5062754;28;20390;-91
2021/07/20 07:27:03;;;;;;;0.88;0.68;;;11.90;99.90;;;;;;5061508;28;20905;-94
2021/07/20 07:29:31;;;;;;;1.92;0.60;;;12.00;99.90;;;;;;5064798;28;20751;-92
2021/07/20 07:31:59;;;;;;;0.77;0.60;;;12.00;99.90;;;;;;5062689;28;20397;-92
2021/07/20 07:34:26;;;;;;;1.80;0.60;;;11.90;99.90;;;;;;5062795;28;20388;-93
2021/07/20 07:36:53;;;;;;;1.45;0.82;;;11.90;99.90;;;;;;5081309;28;20396;-89
2021/07/20 07:39:24;;;;;;;0.93;0.63;;;11.90;99.90;;;;;;5089133;28;20443;-91
2021/07/20 07:41:53;;;;;;;2.80;0.80;;;11.80;99.90;;;;;;5068641;28;20456;-89
2021/07/20 07:44:22;;;;;;;1.25;0.80;;;11.60;99.90;;;;;;5056735;28;20383;-85
2021/07/20 07:46:51;;;;;;;1.00;0.77;;;11.60;99.90;;;;;;5065945;28;20396;-88
2021/07/20 07:49:19;;;;;;;2.15;0.90;;;11.50;99.90;;;;;;5062464;28;20414;-87
2021/07/20 07:51:48;;;;;;;1.77;0.80;;;11.50;99.90;;;;;;5064620;28;20398;-88
2021/07/20 07:54:16;;;;;;;1.30;0.90;;;11.50;99.90;;;;;;5066272;28;20394;-86
2021/07/20 07:56:44;;;;;;;1.25;0.60;;;11.50;99.90;;;;;;5054534;28;20399;-82
2021/07/20 07:59:13;;;;;;;0.75;0.68;;;11.40;99.90;;;;;;5060616;28;20386;-87
2021/07/20 08:01:45;;;;;;;1.40;0.90;;;11.40;99.90;;;;;;5050992;28;20446;-87
2021/07/20 08:04:14;;;;;;;1.00;0.70;;;11.30;99.90;;;;;;5059970;28;20382;-85
2021/07/20 08:06:43;;;;;;;1.23;1.00;;;11.40;99.90;;;;;;5071273;28;20432;-80
2021/07/20 08:09:12;;;;;;;0.77;0.67;;;11.40;99.90;;;;;;5069129;28;20383;-82
2021/07/20 08:11:42;;;;;;;1.37;0.80;;;11.30;99.90;;;;;;5068543;28;20869;-83
2021/07/20 08:14:08;;;;;;;1.80;0.90;;;11.30;99.90;;;;;;5075015;28;20403;-82
2021/07/20 08:16:42;;;;;;;1.63;1.25;;;11.20;99.90;;;;;;5067976;28;20402;-84
2021/07/20 08:19:09;;;;;;;2.72;1.23;;;11.20;99.90;;;;;;5070054;28;20461;-84
2021/07/20 08:21:38;;;;;;;3.75;1.20;;;11.20;99.90;;;;;;5070170;28;20921;-84
2021/07/20 08:24:05;;;;;;;1.60;1.23;;;11.20;99.90;;;;;;5066710;28;20390;-83
2021/07/20 08:26:48;;;;;;;2.00;1.30;;;11.10;99.90;;;;;;5056296;28;20402;-82
2021/07/20 08:29:21;;;;;;;2.55;1.52;;;11.00;99.90;;;;;;5053606;28;20395;-83
2021/07/20 08:31:59;;;;;;;4.47;1.20;;;11.00;99.90;;;;;;5050765;28;20400;-83
2021/07/20 08:34:29;;;;;;;2.13;1.20;;;11.00;99.90;;;;;;5060041;28;20413;-79
2021/07/20 08:36:59;;;;;;;2.03;0.95;;;10.90;99.90;;;;;;5058707;28;20402;-80
2021/07/20 08:39:27;;;;;;;1.80;1.10;;;10.90;99.90;;;;;;5065752;28;20382;-81
2021/07/20 08:42:06;;;;;;;1.90;1.00;;;10.90;99.90;;;;;;5066233;28;20401;-80
2021/07/20 08:44:48;;;;;;;2.70;0.98;;;10.90;99.90;;;;;;5062434;28;20406;-81
2021/07/20 08:47:27;;;;;;;2.13;0.77;;;10.90;99.90;;;;;;5057296;28;20449;-81
2021/07/20 08:50:20;;;;;;;0.88;0.80;;;10.90;99.90;;;;;;5035174;28;20415;-81
2021/07/20 08:53:25;;;;;;;2.42;0.70;;;10.90;99.90;;;;;;5034227;28;21164;-81
2021/07/20 08:55:55;;;;;;;1.17;0.70;;;10.90;99.90;;;;;;5028511;28;20512;-80
2021/07/20 08:58:25;;;;;;;3.00;0.70;;;10.80;99.90;;;;;;5030354;28;20396;-82
2021/07/20 09:01:15;;;;;;;1.40;0.70;;;10.80;99.90;;;;;;5032196;28;20828;-83
2021/07/20 09:03:46;;;;;;;1.55;1.00;;;10.80;99.90;;;;;;5030525;28;20477;-82
2021/07/20 09:06:28;;;;;;;1.30;1.00;;;10.80;99.90;;;;;;5041897;28;20454;-83
2021/07/20 09:09:02;;;;;;;1.67;0.98;;;10.70;99.90;;;;;;5052736;28;20870;-82
2021/07/20 09:11:46;;;;;;;1.13;1.02;;;10.70;99.90;;;;;;5034660;28;20425;-81
2021/07/20 09:14:36;;;;;;;4.10;3.15;;;10.70;99.90;;;;;;5040395;28;20389;-83
2021/07/20 09:17:09;;;;;;;1.50;1.10;;;10.80;99.90;;;;;;5041327;28;20394;-82
2021/07/20 09:20:11;;;;;;;1.20;0.90;;;10.80;99.90;;;;;;5031567;28;20558;-83
2021/07/20 09:22:47;;;;;;;1.15;1.02;;;10.80;99.90;;;;;;5031615;28;20420;-82
2021/07/20 09:25:35;;;;;;;1.33;0.90;;;10.70;99.90;;;;;;5037284;28;20452;-82
2021/07/20 09:28:13;;;;;;;1.40;0.82;;;10.70;99.90;;;;;;5037683;28;21144;-82
2021/07/20 09:30:50;;;;;;;1.70;1.00;;;10.60;99.90;;;;;;5026116;28;21998;-82
2021/07/20 09:33:42;;;;;;;1.30;0.90;;;10.60;99.90;;;;;;5025811;28;20895;-83
2021/07/20 09:36:20;;;;;;;1.47;0.93;;;10.60;99.90;;;;;;5031140;28;20812;-82
2021/07/20 09:38:59;;;;;;;1.45;1.35;;;10.60;99.90;;;;;;5017911;28;20757;-83
2021/07/20 09:41:35;;;;;;;2.00;1.08;;;10.60;99.90;;;;;;5028863;28;20401;-82
2021/07/20 09:44:26;;;;;;;1.30;1.20;;;10.60;99.90;;;;;;5040604;28;20388;-82
2021/07/20 09:47:10;;;;;;;1.25;1.13;;;10.60;99.90;;;;;;5028544;28;20967;-83
2021/07/20 09:49:45;;;;;;;2.00;1.10;;;10.50;99.90;;;;;;5047566;28;20422;-81
2021/07/20 09:52:18;;;;;;;1.00;0.90;;;10.50;99.90;;;;;;5046894;28;20418;-81
2021/07/20 09:54:53;;;;;;;0.73;0.70;;;10.60;99.90;;;;;;5050090;28;20797;-81
2021/07/20 09:57:57;;;;;;;1.08;0.90;;;10.60;99.90;;;;;;5053473;28;20874;-82
2021/07/20 10:00:59;;;;;;;0.82;0.80;;;10.50;99.90;;;;;;5052207;28;20469;-81
2021/07/20 10:03:50;;;;;;;1.20;0.90;;;10.50;99.90;;;;;;5036864;28;20401;-80
2021/07/20 10:06:35;;;;;;;1.38;0.75;;;10.50;99.90;;;;;;5067358;28;20563;-82
2021/07/20 10:09:14;;;;;;;1.60;0.90;;;10.40;99.90;;;;;;5055599;28;20401;-81
2021/07/20 10:11:50;;;;;;;0.80;0.80;;;10.40;99.90;;;;;;5052030;28;20402;-80
2021/07/20 10:14:44;;;;;;;1.00;0.80;;;10.40;99.90;;;;;;5048987;28;20392;-81
2021/07/20 10:17:11;;;;;;;1.83;0.90;;;10.40;99.90;;;;;;5040524;28;20401;-81
2021/07/20 10:20:04;;;;;;;1.90;0.70;;;10.30;99.90;;;;;;5053773;28;20512;-80
2021/07/20 10:22:46;;;;;;;1.05;0.95;;;10.30;99.90;;;;;;5045513;28;21118;-82
2021/07/20 10:25:36;;;;;;;0.82;0.80;;;10.30;99.90;;;;;;5063487;28;20406;-82
2021/07/20 10:28:03;;;;;;;1.55;0.75;;;10.30;99.90;;;;;;5074208;28;20443;-81
2021/07/20 10:30:35;;;;;;;0.93;0.70;;;10.30;99.90;;;;;;5053273;28;21766;-82
2021/07/20 10:33:25;;;;;;;1.83;0.70;;;10.20;99.90;;;;;;5059268;28;20877;-83
2021/07/20 10:36:21;;;;;;;0.80;0.60;;;10.20;99.90;;;;;;5062695;28;21021;-83
2021/07/20 10:39:00;;;;;;;1.10;0.57;;;10.20;99.90;;;;;;5062075;28;20398;-83
2021/07/20 10:41:48;;;;;;;0.95;0.77;;;10.20;99.90;;;;;;5063466;28;20826;-83
2021/07/20 10:44:56;;;;;;;0.82;0.70;;;10.30;99.90;;;;;;5055056;28;20445;-82
2021/07/20 10:47:35;;;;;;;0.60;0.55;;;10.30;99.90;;;;;;5049230;28;21947;-83
2021/07/20 10:50:07;;;;;;;0.90;0.75;;;10.30;99.90;;;;;;5053955;28;20479;-81
2021/07/20 10:53:05;;;;;;;0.60;0.60;;;10.40;99.90;;;;;;5058125;28;20449;-82
2021/07/20 10:55:46;;;;;;;1.80;0.80;;;10.30;99.90;;;;;;5050624;28;20457;-81
2021/07/20 10:58:24;;;;;;;0.73;0.73;;;10.40;99.90;;;;;;5057225;28;20370;-82
2021/07/20 11:01:17;;;;;;;0.88;0.70;;;10.30;99.90;;;;;;5057686;28;20459;-81
2021/07/20 11:04:22;;;;;;;2.33;1.00;;;10.30;99.90;;;;;;5054233;28;20390;-81
2021/07/20 11:06:50;;;;;;;0.80;0.60;;;10.30;99.90;;;;;;5061400;28;20394;-82
2021/07/20 11:09:20;;;;;;;1.02;0.60;;;10.40;99.90;;;;;;5069430;28;20390;-81
2021/07/20 11:11:58;;;;;;;0.50;0.50;;;10.40;99.90;;;;;;5057641;28;20406;-82
2021/07/20 11:14:32;;;;;;;0.50;0.40;;;10.40;99.90;;;;;;5065521;28;20386;-82
2021/07/20 11:17:00;;;;;;;1.35;0.43;;;10.50;99.90;;;;;;5054991;28;20390;-81
2021/07/20 11:19:30;;;;;;;0.63;0.25;;;10.50;99.90;;;;;;5072361;28;20454;-82
2021/07/20 11:21:59;;;;;;;0.77;0.32;;;10.50;99.90;;;;;;5051448;28;21971;-82
2021/07/20 11:24:26;;;;;;;2.00;0.50;;;10.50;99.90;;;;;;5062200;28;20413;-82
2021/07/20 11:26:56;;;;;;;0.50;0.40;;;10.40;99.90;;;;;;5051741;28;20763;-82
2021/07/20 11:29:24;;;;;;;0.75;0.40;;;10.40;99.90;;;;;;5064970;28;20406;-83
2021/07/20 11:31:55;;;;;;;0.32;0.20;;;10.40;99.90;;;;;;5067784;28;20396;-82
2021/07/20 11:34:32;;;;;;;0.80;0.30;;;10.40;99.90;;;;;;5061996;28;20395;-82
2021/07/20 11:37:17;;;;;;;0.90;0.32;;;10.40;99.90;;;;;;5054251;28;20393;-82
2021/07/20 11:39:54;;;;;;;1.73;0.40;;;10.40;99.90;;;;;;5067264;28;20386;-82
2021/07/20 11:42:24;;;;;;;1.47;1.00;;;10.40;99.90;;;;;;5061663;28;20391;-81
2021/07/20 11:44:56;;;;;;;1.35;0.60;;;10.30;99.90;;;;;;5057202;28;20900;-82
2021/07/20 11:47:28;;;;;;;0.70;0.70;;;10.40;99.90;;;;;;5058931;28;20390;-82
2021/07/20 11:50:10;;;;;;;1.33;0.70;;;10.40;99.90;;;;;;5057210;28;20522;-82
2021/07/20 11:52:58;;;;;;;1.20;0.75;;;10.30;99.90;;;;;;5052187;28;20403;-82
2021/07/20 11:55:28;;;;;;;0.80;0.57;;;10.30;99.90;;;;;;5060184;28;20444;-81
2021/07/20 11:58:10;;;;;;;1.27;0.57;;;10.30;99.90;;;;;;5056466;28;20398;-82
2021/07/20 12:01:06;;;;;;;0.40;0.30;;;10.30;99.90;;;;;;5048644;28;20400;-82
2021/07/20 12:04:10;;;;;;;0.75;0.50;;;10.30;99.90;;;;;;5050696;28;20441;-82
2021/07/20 12:06:52;;;;;;;1.20;0.60;;;10.20;99.90;;;;;;5053896;28;20391;-83
2021/07/20 12:09:22;;;;;;;0.70;0.40;;;10.20;99.90;;;;;;5065017;28;20390;-82
2021/07/20 12:11:52;;;;;;;0.70;0.40;;;10.20;99.90;;;;;;5067380;28;20401;-82
2021/07/20 12:14:21;;;;;;;0.63;0.40;;;10.10;99.90;;;;;;5056627;28;20384;-82
2021/07/20 12:16:49;;;;;;;0.80;0.55;;;10.10;99.90;;;;;;5066474;28;20412;-82
2021/07/20 12:19:29;;;;;;;1.17;0.50;;;10.00;99.90;;;;;;5067585;28;20418;-82
2021/07/20 12:22:03;;;;;;;0.90;0.60;;;9.90;99.90;;;;;;5055432;28;20378;-82
2021/07/20 12:24:31;;;;;;;1.33;0.60;;;9.80;99.90;;;;;;5053204;28;20453;-82
2021/07/20 12:26:58;;;;;;;1.17;0.50;;;9.80;99.90;;;;;;5053312;28;20491;-82
2021/07/20 12:29:27;;;;;;;1.40;0.52;;;9.70;99.90;;;;;;5055295;28;20425;-82
2021/07/20 12:31:55;;;;;;;1.40;0.52;;;9.60;99.90;;;;;;5064084;28;20401;-82
2021/07/20 12:34:23;;;;;;;1.20;0.60;;;9.60;99.90;;;;;;5065921;28;20386;-82
2021/07/20 12:36:50;;;;;;;0.45;0.40;;;9.50;99.90;;;;;;5060967;28;20398;-83
2021/07/20 12:39:23;;;;;;;0.55;0.50;;;9.50;99.90;;;;;;5066528;28;20390;-82
2021/07/20 12:41:56;;;;;;;0.83;0.60;;;9.40;99.90;;;;;;5070643;28;20390;-83
2021/07/20 12:44:25;;;;;;;1.15;0.70;;;9.40;99.90;;;;;;5074792;28;20736;-82
2021/07/20 12:47:03;;;;;;;1.40;0.60;;;9.40;99.90;;;;;;5068844;28;20399;-82
2021/07/20 12:49:30;;;;;;;2.60;0.68;;;9.30;99.90;;;;;;5046232;28;20418;-82
2021/07/20 12:51:57;;;;;;;1.08;0.60;;;9.40;99.90;;;;;;5055012;28;20399;-82
2021/07/20 12:54:34;;;;;;;1.70;0.60;;;9.30;99.90;;;;;;5049930;28;20411;-82
2021/07/20 12:57:03;;;;;;;1.15;0.55;;;9.30;99.90;;;;;;5045740;28;20835;-82
2021/07/20 12:59:32;;;;;;;1.35;0.60;;;9.30;99.90;;;;;;5052049;28;20795;-82
2021/07/20 13:01:59;;;;;;;0.82;0.50;;;9.30;99.90;;;;;;5038848;28;20401;-82
2021/07/20 13:04:27;;;;;;;0.40;0.30;;;9.30;99.90;;;;;;5041248;28;20398;-82
2021/07/20 13:06:55;;;;;;;0.90;0.40;;;9.20;99.90;;;;;;5030676;28;20880;-81
2021/07/20 13:09:23;;;;;;;0.73;0.55;;;9.20;99.90;;;;;;5051590;28;20887;-82
2021/07/20 13:11:52;;;;;;;1.70;0.52;;;9.30;99.90;;;;;;5054902;28;20429;-82
2021/07/20 13:14:21;;;;;;;0.30;0.30;;;9.30;99.90;;;;;;5045002;28;20734;-81
2021/07/20 13:16:48;;;;;;;0.43;0.32;;;9.20;99.90;;;;;;5043944;28;20463;-82
2021/07/20 13:19:18;;;;;;;0.45;0.40;;;9.20;99.90;;;;;;5029116;28;20417;-81